Marvin, Missouri
Current Conditions -  °F | °C
As of 1:04 AM on Friday 19 Dec 2014 (Local Time) from KDMO Reporting Station
Haze Haze  
Wind Chill: 29°   Ceiling: 200
Heat Index: 33°   Visibility: 3mi
Dew Point: 32°   Wind: 5mph
Humidity: 96%   Direction: 100°E
Pressure: 30.26"   Gusts: NA
Location:  38.4499°N, 92.8168°W
Report Text: KDMO 190704Z AUTO 10004KT 3SM BR OVC002 01/00 A3026 RMK AO2 T00060000
Loading
Personal Weather Stations






























Interactive Weather Map New forecast layout! Learn more

10-Day Weather Forecast

Advertisements
Track Severe Weather on mobile